sensor_id;sensor_type;location;lat;lon;timestamp;pressure;altitude;pressure_sealevel;temperature;humidity
4836;BME280;66719;51.226;6.902;2023-08-21T00:00:46;101431.25;;;19.96;100.00
4836;BME280;66719;51.226;6.902;2023-08-21T00:03:12;101435.72;;;19.77;100.00
4836;BME280;66719;51.226;6.902;2023-08-21T00:05:39;101438.44;;;19.75;100.00
4836;BME280;66719;51.226;6.902;2023-08-21T00:08:06;101434.91;;;19.75;100.00
4836;BME280;66719;51.226;6.902;2023-08-21T00:10:37;101438.03;;;19.85;100.00
4836;BME280;66719;51.226;6.902;2023-08-21T00:13:05;101430.31;;;19.97;100.00
4836;BME280;66719;51.226;6.902;2023-08-21T00:15:31;101438.03;;;20.03;100.00
4836;BME280;66719;51.226;6.902;2023-08-21T00:17:58;101430.84;;;20.05;100.00
4836;BME280;66719;51.226;6.902;2023-08-21T00:20:25;101435.66;;;19.97;100.00
4836;BME280;66719;51.226;6.902;2023-08-21T00:22:51;101438.69;;;19.90;100.00
4836;BME280;66719;51.226;6.902;2023-08-21T00:25:18;101430.75;;;19.88;100.00
4836;BME280;66719;51.226;6.902;2023-08-21T00:27:45;101425.44;;;19.88;100.00
4836;BME280;66719;51.226;6.902;2023-08-21T00:30:11;101432.44;;;19.91;100.00
4836;BME280;66719;51.226;6.902;2023-08-21T00:32:41;101434.34;;;19.87;100.00
4836;BME280;66719;51.226;6.902;2023-08-21T00:35:08;101422.66;;;19.91;100.00
4836;BME280;66719;51.226;6.902;2023-08-21T00:37:34;101428.91;;;19.90;100.00
4836;BME280;66719;51.226;6.902;2023-08-21T00:40:01;101421.81;;;19.91;100.00
4836;BME280;66719;51.226;6.902;2023-08-21T00:42:27;101421.22;;;19.84;100.00
4836;BME280;66719;51.226;6.902;2023-08-21T00:44:54;101423.13;;;19.81;100.00
4836;BME280;66719;51.226;6.902;2023-08-21T00:47:21;101424.88;;;19.82;100.00
4836;BME280;66719;51.226;6.902;2023-08-21T00:49:47;101422.50;;;19.75;100.00
4836;BME280;66719;51.226;6.902;2023-08-21T00:52:14;101423.44;;;19.74;100.00
4836;BME280;66719;51.226;6.902;2023-08-21T00:54:42;101422.34;;;19.79;100.00
4836;BME280;66719;51.226;6.902;2023-08-21T00:57:10;101419.75;;;19.77;100.00
4836;BME280;66719;51.226;6.902;2023-08-21T00:59:38;101412.88;;;19.73;100.00
4836;BME280;66719;51.226;6.902;2023-08-21T01:02:04;101416.81;;;19.64;100.00
4836;BME280;66719;51.226;6.902;2023-08-21T01:04:31;101425.41;;;19.49;100.00
4836;BME280;66719;51.226;6.902;2023-08-21T01:06:58;101422.25;;;19.41;100.00
4836;BME280;66719;51.226;6.902;2023-08-21T01:09:39;101423.34;;;19.35;100.00
4836;BME280;66719;51.226;6.902;2023-08-21T01:12:29;101423.66;;;19.29;100.00
4836;BME280;66719;51.226;6.902;2023-08-21T01:15:02;101430.06;;;19.24;100.00
4836;BME280;66719;51.226;6.902;2023-08-21T01:17:30;101426.28;;;19.09;100.00
4836;BME280;66719;51.226;6.902;2023-08-21T01:19:58;101432.59;;;19.06;100.00
4836;BME280;66719;51.226;6.902;2023-08-21T01:22:35;101431.47;;;19.12;100.00
4836;BME280;66719;51.226;6.902;2023-08-21T01:25:04;101440.31;;;19.12;100.00
4836;BME280;66719;51.226;6.902;2023-08-21T01:27:34;101438.19;;;19.20;100.00
4836;BME280;66719;51.226;6.902;2023-08-21T01:30:02;101437.03;;;19.26;100.00
4836;BME280;66719;51.226;6.902;2023-08-21T01:32:31;101451.66;;;19.36;100.00
4836;BME280;66719;51.226;6.902;2023-08-21T01:35:00;101447.56;;;19.29;100.00
4836;BME280;66719;51.226;6.902;2023-08-21T01:37:27;101444.16;;;19.26;100.00
4836;BME280;66719;51.226;6.902;2023-08-21T01:39:58;101448.59;;;19.25;100.00
4836;BME280;66719;51.226;6.902;2023-08-21T01:42:24;101451.47;;;19.20;100.00
4836;BME280;66719;51.226;6.902;2023-08-21T01:44:51;101444.53;;;19.16;100.00
4836;BME280;66719;51.226;6.902;2023-08-21T01:47:17;101448.28;;;19.12;100.00
4836;BME280;66719;51.226;6.902;2023-08-21T01:49:48;101447.41;;;19.12;100.00
4836;BME280;66719;51.226;6.902;2023-08-21T01:52:19;101451.97;;;19.08;100.00
4836;BME280;66719;51.226;6.902;2023-08-21T01:54:45;101447.66;;;19.06;100.00
4836;BME280;66719;51.226;6.902;2023-08-21T01:57:14;101447.44;;;18.90;100.00
4836;BME280;66719;51.226;6.902;2023-08-21T01:59:41;101441.31;;;18.88;100.00
4836;BME280;66719;51.226;6.902;2023-08-21T02:02:07;101450.88;;;18.92;100.00
4836;BME280;66719;51.226;6.902;2023-08-21T02:04:34;101437.59;;;18.92;100.00
4836;BME280;66719;51.226;6.902;2023-08-21T02:07:00;101436.44;;;18.99;100.00
4836;BME280;66719;51.226;6.902;2023-08-21T02:09:27;101438.16;;;19.00;100.00
4836;BME280;66719;51.226;6.902;2023-08-21T02:11:53;101436.28;;;19.02;100.00
4836;BME280;66719;51.226;6.902;2023-08-21T02:14:20;101441.81;;;18.98;100.00
4836;BME280;66719;51.226;6.902;2023-08-21T02:16:46;101436.75;;;18.91;100.00
4836;BME280;66719;51.226;6.902;2023-08-21T02:19:13;101436.19;;;18.83;100.00
4836;BME280;66719;51.226;6.902;2023-08-21T02:21:39;101431.72;;;18.85;100.00
4836;BME280;66719;51.226;6.902;2023-08-21T02:24:06;101432.06;;;18.76;100.00
4836;BME280;66719;51.226;6.902;2023-08-21T02:26:32;101425.97;;;18.74;100.00
4836;BME280;66719;51.226;6.902;2023-08-21T02:28:59;101431.41;;;18.71;100.00
4836;BME280;66719;51.226;6.902;2023-08-21T02:31:25;101426.75;;;18.76;100.00
4836;BME280;66719;51.226;6.902;2023-08-21T02:33:52;101430.34;;;18.75;100.00
4836;BME280;66719;51.226;6.902;2023-08-21T02:36:19;101432.28;;;18.72;100.00
4836;BME280;66719;51.226;6.902;2023-08-21T02:38:45;101430.03;;;18.61;100.00
4836;BME280;66719;51.226;6.902;2023-08-21T02:41:12;101422.16;;;18.58;100.00
4836;BME280;66719;51.226;6.902;2023-08-21T02:43:41;101425.59;;;18.61;100.00
4836;BME280;66719;51.226;6.902;2023-08-21T02:46:07;101422.25;;;18.56;100.00
4836;BME280;66719;51.226;6.902;2023-08-21T02:48:35;101432.91;;;18.55;100.00
4836;BME280;66719;51.226;6.902;2023-08-21T02:51:01;101423.97;;;18.57;100.00
4836;BME280;66719;51.226;6.902;2023-08-21T02:53:31;101429.16;;;18.60;100.00
4836;BME280;66719;51.226;6.902;2023-08-21T02:55:57;101420.94;;;18.68;100.00
4836;BME280;66719;51.226;6.902;2023-08-21T02:58:24;101420.66;;;18.74;100.00
4836;BME280;66719;51.226;6.902;2023-08-21T03:00:50;101423.50;;;18.70;100.00
4836;BME280;66719;51.226;6.902;2023-08-21T03:03:17;101427.09;;;18.69;100.00
4836;BME280;66719;51.226;6.902;2023-08-21T03:05:43;101428.06;;;18.66;100.00
4836;BME280;66719;51.226;6.902;2023-08-21T03:08:10;101432.50;;;18.66;100.00
4836;BME280;66719;51.226;6.902;2023-08-21T03:10:37;101432.69;;;18.61;100.00
4836;BME280;66719;51.226;6.902;2023-08-21T03:13:03;101426.53;;;18.59;100.00
4836;BME280;66719;51.226;6.902;2023-08-21T03:15:30;101419.41;;;18.61;100.00
4836;BME280;66719;51.226;6.902;2023-08-21T03:17:56;101409.59;;;18.63;100.00
4836;BME280;66719;51.226;6.902;2023-08-21T03:20:23;101410.19;;;18.71;100.00
4836;BME280;66719;51.226;6.902;2023-08-21T03:22:50;101402.16;;;18.73;100.00
4836;BME280;66719;51.226;6.902;2023-08-21T03:25:17;101401.16;;;18.75;100.00
4836;BME280;66719;51.226;6.902;2023-08-21T03:27:43;101402.88;;;18.76;100.00
4836;BME280;66719;51.226;6.902;2023-08-21T03:30:12;101401.28;;;18.72;100.00
4836;BME280;66719;51.226;6.902;2023-08-21T03:32:41;101403.16;;;18.70;100.00
4836;BME280;66719;51.226;6.902;2023-08-21T03:35:08;101403.88;;;18.74;100.00
4836;BME280;66719;51.226;6.902;2023-08-21T03:37:34;101410.09;;;18.73;100.00
4836;BME280;66719;51.226;6.902;2023-08-21T03:40:03;101410.41;;;18.65;100.00
4836;BME280;66719;51.226;6.902;2023-08-21T03:42:30;101398.25;;;18.59;100.00
4836;BME280;66719;51.226;6.902;2023-08-21T03:44:56;101399.81;;;18.65;100.00
4836;BME280;66719;51.226;6.902;2023-08-21T03:47:23;101402.34;;;18.68;100.00
4836;BME280;66719;51.226;6.902;2023-08-21T03:49:49;101403.16;;;18.70;100.00
4836;BME280;66719;51.226;6.902;2023-08-21T03:52:16;101403.00;;;18.73;100.00
4836;BME280;66719;51.226;6.902;2023-08-21T03:54:42;101407.38;;;18.74;100.00
4836;BME280;66719;51.226;6.902;2023-08-21T03:57:09;101411.09;;;18.70;100.00
4836;BME280;66719;51.226;6.902;2023-08-21T03:59:35;101401.28;;;18.72;100.00
4836;BME280;66719;51.226;6.902;2023-08-21T04:02:02;101407.28;;;18.77;100.00
4836;BME280;66719;51.226;6.902;2023-08-21T04:04:28;101407.22;;;18.79;100.00
4836;BME280;66719;51.226;6.902;2023-08-21T04:06:55;101409.78;;;18.80;100.00
4836;BME280;66719;51.226;6.902;2023-08-21T04:09:21;101419.56;;;18.80;100.00
4836;BME280;66719;51.226;6.902;2023-08-21T04:11:48;101411.38;;;18.84;100.00
4836;BME280;66719;51.226;6.902;2023-08-21T04:14:14;101410.19;;;18.91;100.00
4836;BME280;66719;51.226;6.902;2023-08-21T04:16:41;101402.13;;;18.95;100.00
4836;BME280;66719;51.226;6.902;2023-08-21T04:19:08;101416.19;;;18.97;100.00
4836;BME280;66719;51.226;6.902;2023-08-21T04:21:34;101419.78;;;18.96;100.00
4836;BME280;66719;51.226;6.902;2023-08-21T04:24:01;101411.13;;;18.90;100.00
4836;BME280;66719;51.226;6.902;2023-08-21T04:26:27;101413.06;;;18.87;100.00
4836;BME280;66719;51.226;6.902;2023-08-21T04:28:54;101420.16;;;18.86;100.00
4836;BME280;66719;51.226;6.902;2023-08-21T04:31:20;101418.38;;;18.87;100.00
4836;BME280;66719;51.226;6.902;2023-08-21T04:33:47;101422.69;;;18.89;100.00
4836;BME280;66719;51.226;6.902;2023-08-21T04:36:17;101414.72;;;18.89;100.00
4836;BME280;66719;51.226;6.902;2023-08-21T04:38:43;101429.84;;;18.87;100.00
4836;BME280;66719;51.226;6.902;2023-08-21T04:41:10;101414.84;;;18.86;100.00
4836;BME280;66719;51.226;6.902;2023-08-21T04:43:37;101416.59;;;18.87;100.00
4836;BME280;66719;51.226;6.902;2023-08-21T04:46:04;101425.16;;;18.94;100.00
4836;BME280;66719;51.226;6.902;2023-08-21T04:48:30;101422.38;;;18.97;100.00
4836;BME280;66719;51.226;6.902;2023-08-21T04:50:57;101420.63;;;18.96;100.00
4836;BME280;66719;51.226;6.902;2023-08-21T04:53:23;101415.72;;;18.87;100.00
4836;BME280;66719;51.226;6.902;2023-08-21T04:55:50;101419.03;;;18.92;100.00
4836;BME280;66719;51.226;6.902;2023-08-21T04:58:16;101422.38;;;18.97;100.00
4836;BME280;66719;51.226;6.902;2023-08-21T05:00:46;101416.84;;;19.02;100.00
4836;BME280;66719;51.226;6.902;2023-08-21T05:03:13;101421.19;;;19.04;100.00
4836;BME280;66719;51.226;6.902;2023-08-21T05:05:39;101424.81;;;19.02;100.00
4836;BME280;66719;51.226;6.902;2023-08-21T05:08:06;101422.13;;;19.03;100.00
4836;BME280;66719;51.226;6.902;2023-08-21T05:10:33;101428.28;;;19.04;100.00
4836;BME280;66719;51.226;6.902;2023-08-21T05:12:59;101436.19;;;19.05;100.00
4836;BME280;66719;51.226;6.902;2023-08-21T05:15:26;101435.19;;;19.08;100.00
4836;BME280;66719;51.226;6.902;2023-08-21T05:17:53;101427.13;;;19.09;100.00
4836;BME280;66719;51.226;6.902;2023-08-21T05:20:19;101422.59;;;19.13;100.00
4836;BME280;66719;51.226;6.902;2023-08-21T05:22:46;101421.72;;;19.12;100.00
4836;BME280;66719;51.226;6.902;2023-08-21T05:25:12;101426.09;;;19.13;100.00
4836;BME280;66719;51.226;6.902;2023-08-21T05:27:39;101421.50;;;19.17;100.00
4836;BME280;66719;51.226;6.902;2023-08-21T05:30:06;101426.75;;;19.18;100.00
4836;BME280;66719;51.226;6.902;2023-08-21T05:32:32;101416.09;;;19.20;100.00
4836;BME280;66719;51.226;6.902;2023-08-21T05:34:59;101430.06;;;19.24;100.00
4836;BME280;66719;51.226;6.902;2023-08-21T05:37:26;101421.97;;;19.27;100.00
4836;BME280;66719;51.226;6.902;2023-08-21T05:39:53;101429.88;;;19.28;100.00
4836;BME280;66719;51.226;6.902;2023-08-21T05:42:20;101428.81;;;19.32;100.00
4836;BME280;66719;51.226;6.902;2023-08-21T05:44:46;101430.28;;;19.39;100.00
4836;BME280;66719;51.226;6.902;2023-08-21T05:47:15;101432.59;;;19.47;100.00
4836;BME280;66719;51.226;6.902;2023-08-21T05:49:41;101435.81;;;19.54;100.00
4836;BME280;66719;51.226;6.902;2023-08-21T05:52:09;101438.34;;;19.58;100.00
4836;BME280;66719;51.226;6.902;2023-08-21T05:54:35;101434.59;;;19.62;100.00
4836;BME280;66719;51.226;6.902;2023-08-21T05:57:02;101432.69;;;19.66;100.00
4836;BME280;66719;51.226;6.902;2023-08-21T05:59:32;101437.25;;;19.62;100.00
4836;BME280;66719;51.226;6.902;2023-08-21T06:01:59;101435.41;;;19.64;100.00
4836;BME280;66719;51.226;6.902;2023-08-21T06:04:26;101431.75;;;19.67;100.00
4836;BME280;66719;51.226;6.902;2023-08-21T06:06:54;101436.97;;;19.68;100.00
4836;BME280;66719;51.226;6.902;2023-08-21T06:09:20;101440.44;;;19.70;100.00
4836;BME280;66719;51.226;6.902;2023-08-21T06:11:47;101444.69;;;19.74;100.00
4836;BME280;66719;51.226;6.902;2023-08-21T06:14:14;101449.00;;;19.77;100.00
4836;BME280;66719;51.226;6.902;2023-08-21T06:16:40;101449.78;;;19.79;100.00
4836;BME280;66719;51.226;6.902;2023-08-21T06:19:07;101446.16;;;19.82;100.00
4836;BME280;66719;51.226;6.902;2023-08-21T06:21:34;101449.72;;;19.81;100.00
4836;BME280;66719;51.226;6.902;2023-08-21T06:24:00;101447.94;;;19.81;100.00
4836;BME280;66719;51.226;6.902;2023-08-21T06:26:27;101448.81;;;19.82;100.00
4836;BME280;66719;51.226;6.902;2023-08-21T06:28:53;101458.50;;;19.83;100.00
4836;BME280;66719;51.226;6.902;2023-08-21T06:31:20;101461.88;;;19.86;100.00
4836;BME280;66719;51.226;6.902;2023-08-21T06:33:47;101457.34;;;19.88;100.00
4836;BME280;66719;51.226;6.902;2023-08-21T06:36:13;101460.00;;;19.88;100.00
4836;BME280;66719;51.226;6.902;2023-08-21T06:38:40;101462.63;;;19.90;100.00
4836;BME280;66719;51.226;6.902;2023-08-21T06:41:07;101469.69;;;19.89;100.00
4836;BME280;66719;51.226;6.902;2023-08-21T06:43:38;101462.63;;;19.90;100.00
4836;BME280;66719;51.226;6.902;2023-08-21T06:46:08;101458.16;;;19.90;100.00
4836;BME280;66719;51.226;6.902;2023-08-21T06:48:38;101460.81;;;19.90;100.00
4836;BME280;66719;51.226;6.902;2023-08-21T06:51:07;101458.16;;;19.90;100.00
4836;BME280;66719;51.226;6.902;2023-08-21T06:53:34;101459.88;;;19.91;100.00
4836;BME280;66719;51.226;6.902;2023-08-21T06:56:01;101457.22;;;19.91;100.00
4836;BME280;66719;51.226;6.902;2023-08-21T06:58:27;101463.19;;;19.96;100.00
4836;BME280;66719;51.226;6.902;2023-08-21T07:01:07;101463.91;;;20.00;100.00
4836;BME280;66719;51.226;6.902;2023-08-21T07:03:34;101463.91;;;20.00;100.00
4836;BME280;66719;51.226;6.902;2023-08-21T07:06:00;101470.09;;;20.00;100.00
4836;BME280;66719;51.226;6.902;2023-08-21T07:08:27;101467.34;;;20.02;100.00
4836;BME280;66719;51.226;6.902;2023-08-21T07:10:54;101474.91;;;20.11;100.00
4836;BME280;66719;51.226;6.902;2023-08-21T07:13:20;101473.03;;;20.13;100.00
4836;BME280;66719;51.226;6.902;2023-08-21T07:15:47;101475.69;;;20.13;100.00
4836;BME280;66719;51.226;6.902;2023-08-21T07:18:14;101474.50;;;20.20;100.00
4836;BME280;66719;51.226;6.902;2023-08-21T07:20:41;101476.88;;;20.26;100.00
4836;BME280;66719;51.226;6.902;2023-08-21T07:23:07;101476.16;;;20.42;100.00
4836;BME280;66719;51.226;6.902;2023-08-21T07:25:34;101479.56;;;20.45;100.00
4836;BME280;66719;51.226;6.902;2023-08-21T07:28:00;101480.22;;;20.50;100.00
4836;BME280;66719;51.226;6.902;2023-08-21T07:30:27;101482.56;;;20.56;100.00
4836;BME280;66719;51.226;6.902;2023-08-21T07:32:54;101492.22;;;20.59;100.00
4836;BME280;66719;51.226;6.902;2023-08-21T07:35:21;101488.66;;;20.58;100.00
4836;BME280;66719;51.226;6.902;2023-08-21T07:37:47;101483.34;;;20.58;100.00
4836;BME280;66719;51.226;6.902;2023-08-21T07:40:14;101490.47;;;20.58;100.00
4836;BME280;66719;51.226;6.902;2023-08-21T07:42:40;101479.59;;;20.63;100.00
4836;BME280;66719;51.226;6.902;2023-08-21T07:45:07;101484.94;;;20.63;100.00
4836;BME280;66719;51.226;6.902;2023-08-21T07:47:34;101480.63;;;20.60;100.00
4836;BME280;66719;51.226;6.902;2023-08-21T07:50:03;101486.81;;;20.60;100.00
4836;BME280;66719;51.226;6.902;2023-08-21T07:52:29;101486.81;;;20.60;100.00
4836;BME280;66719;51.226;6.902;2023-08-21T07:54:56;101485.59;;;20.68;100.00
4836;BME280;66719;51.226;6.902;2023-08-21T07:57:23;101481.53;;;20.78;100.00
4836;BME280;66719;51.226;6.902;2023-08-21T07:59:49;101486.78;;;20.79;100.00
4836;BME280;66719;51.226;6.902;2023-08-21T08:02:16;101480.59;;;20.79;100.00
4836;BME280;66719;51.226;6.902;2023-08-21T08:04:43;101483.09;;;20.82;100.00
4836;BME280;66719;51.226;6.902;2023-08-21T08:07:10;101484.53;;;20.89;100.00
4836;BME280;66719;51.226;6.902;2023-08-21T08:09:36;101481.69;;;20.92;100.00
4836;BME280;66719;51.226;6.902;2023-08-21T08:12:03;101485.09;;;20.96;100.00
4836;BME280;66719;51.226;6.902;2023-08-21T08:14:32;101487.75;;;20.96;100.00
4836;BME280;66719;51.226;6.902;2023-08-21T08:16:59;101486.94;;;20.94;100.00
4836;BME280;66719;51.226;6.902;2023-08-21T08:19:25;101478.25;;;20.90;100.00
4836;BME280;66719;51.226;6.902;2023-08-21T08:21:52;101483.75;;;20.87;100.00
4836;BME280;66719;51.226;6.902;2023-08-21T08:24:18;101476.75;;;20.84;100.00
4836;BME280;66719;51.226;6.902;2023-08-21T08:26:45;101473.19;;;20.85;100.00
4836;BME280;66719;51.226;6.902;2023-08-21T08:29:12;101472.94;;;20.90;100.00
4836;BME280;66719;51.226;6.902;2023-08-21T08:31:39;101474.97;;;21.02;100.00
4836;BME280;66719;51.226;6.902;2023-08-21T08:34:05;101472.19;;;21.05;100.00
4836;BME280;66719;51.226;6.902;2023-08-21T08:36:32;101470.38;;;21.06;100.00
4836;BME280;66719;51.226;6.902;2023-08-21T08:39:18;101469.50;;;21.05;100.00
4836;BME280;66719;51.226;6.902;2023-08-21T08:41:52;101478.47;;;21.22;100.00
4836;BME280;66719;51.226;6.902;2023-08-21T08:44:20;101479.09;;;21.44;100.00
4836;BME280;66719;51.226;6.902;2023-08-21T08:46:47;101478.25;;;21.43;100.00
4836;BME280;66719;51.226;6.902;2023-08-21T08:49:14;101487.81;;;21.65;100.00
4836;BME280;66719;51.226;6.902;2023-08-21T08:51:41;101479.31;;;21.74;100.00
4836;BME280;66719;51.226;6.902;2023-08-21T08:54:10;101485.19;;;21.81;100.00
4836;BME280;66719;51.226;6.902;2023-08-21T08:56:38;101480.78;;;21.80;100.00
4836;BME280;66719;51.226;6.902;2023-08-21T08:59:07;101485.59;;;21.73;100.00
4836;BME280;66719;51.226;6.902;2023-08-21T09:01:34;101474.75;;;21.76;100.00
4836;BME280;66719;51.226;6.902;2023-08-21T09:04:01;101484.38;;;21.79;100.00
4836;BME280;66719;51.226;6.902;2023-08-21T09:06:28;101482.81;;;21.92;100.00
4836;BME280;66719;51.226;6.902;2023-08-21T09:08:56;101495.88;;;21.96;100.00
4836;BME280;66719;51.226;6.902;2023-08-21T09:11:23;101496.41;;;22.03;100.00
4836;BME280;66719;51.226;6.902;2023-08-21T09:13:51;101500.44;;;22.12;100.00
4836;BME280;66719;51.226;6.902;2023-08-21T09:16:28;101491.56;;;22.11;100.00
4836;BME280;66719;51.226;6.902;2023-08-21T09:18:56;101499.50;;;22.13;100.00
4836;BME280;66719;51.226;6.902;2023-08-21T09:21:24;101500.19;;;22.32;100.00
4836;BME280;66719;51.226;6.902;2023-08-21T09:23:57;101502.38;;;22.25;100.00
4836;BME280;66719;51.226;6.902;2023-08-21T09:26:25;101486.91;;;22.15;100.00
4836;BME280;66719;51.226;6.902;2023-08-21T09:28:53;101497.59;;;22.15;100.00
4836;BME280;66719;51.226;6.902;2023-08-21T09:31:24;101493.66;;;22.38;100.00
4836;BME280;66719;51.226;6.902;2023-08-21T09:33:57;101490.88;;;22.23;100.00
4836;BME280;66719;51.226;6.902;2023-08-21T09:36:24;101485.91;;;22.17;100.00
4836;BME280;66719;51.226;6.902;2023-08-21T09:38:51;101482.63;;;22.12;100.00
4836;BME280;66719;51.226;6.902;2023-08-21T09:41:20;101482.13;;;22.37;100.00
4836;BME280;66719;51.226;6.902;2023-08-21T09:43:46;101484.72;;;22.39;100.00
4836;BME280;66719;51.226;6.902;2023-08-21T09:46:26;101486.34;;;22.25;100.00
4836;BME280;66719;51.226;6.902;2023-08-21T09:48:54;101479.63;;;22.18;100.00
4836;BME280;66719;51.226;6.902;2023-08-21T09:51:21;101481.06;;;22.08;100.00
4836;BME280;66719;51.226;6.902;2023-08-21T09:53:48;101485.66;;;22.38;100.00
4836;BME280;66719;51.226;6.902;2023-08-21T09:56:19;101482.47;;;22.47;100.00
4836;BME280;66719;51.226;6.902;2023-08-21T09:58:47;101476.78;;;22.37;100.00
4836;BME280;66719;51.226;6.902;2023-08-21T10:01:16;101475.94;;;22.37;100.00
4836;BME280;66719;51.226;6.902;2023-08-21T10:03:43;101486.53;;;22.54;100.00
4836;BME280;66719;51.226;6.902;2023-08-21T10:06:17;101488.34;;;22.69;100.00
4836;BME280;66719;51.226;6.902;2023-08-21T10:08:53;101483.16;;;22.66;100.00
4836;BME280;66719;51.226;6.902;2023-08-21T10:11:20;101472.13;;;22.72;100.00
4836;BME280;66719;51.226;6.902;2023-08-21T10:13:48;101474.38;;;22.80;100.00
4836;BME280;66719;51.226;6.902;2023-08-21T10:16:17;101473.19;;;22.86;100.00
4836;BME280;66719;51.226;6.902;2023-08-21T10:18:45;101470.94;;;22.94;100.00
4836;BME280;66719;51.226;6.902;2023-08-21T10:21:23;101478.84;;;23.11;100.00
4836;BME280;66719;51.226;6.902;2023-08-21T10:23:59;101473.25;;;23.00;100.00
4836;BME280;66719;51.226;6.902;2023-08-21T10:26:26;101469.44;;;23.04;100.00
4836;BME280;66719;51.226;6.902;2023-08-21T10:28:59;101459.22;;;22.96;100.00
4836;BME280;66719;51.226;6.902;2023-08-21T10:34:34;101463.16;;;22.73;100.00
4836;BME280;66719;51.226;6.902;2023-08-21T10:37:15;101475.75;;;22.71;100.00
4836;BME280;66719;51.226;6.902;2023-08-21T10:39:56;101468.78;;;22.84;100.00
4836;BME280;66719;51.226;6.902;2023-08-21T10:42:40;101458.84;;;23.02;100.00
4836;BME280;66719;51.226;6.902;2023-08-21T10:45:12;101467.63;;;23.04;100.00
4836;BME280;66719;51.226;6.902;2023-08-21T10:47:39;101466.03;;;23.16;100.00
4836;BME280;66719;51.226;6.902;2023-08-21T10:50:07;101469.13;;;23.24;100.00
4836;BME280;66719;51.226;6.902;2023-08-21T10:52:41;101470.47;;;23.31;100.00
4836;BME280;66719;51.226;6.902;2023-08-21T10:55:09;101470.69;;;23.28;100.00
4836;BME280;66719;51.226;6.902;2023-08-21T10:57:36;101472.88;;;23.36;100.00
4836;BME280;66719;51.226;6.902;2023-08-21T11:00:16;101471.66;;;23.41;100.00
4836;BME280;66719;51.226;6.902;2023-08-21T11:02:49;101471.25;;;23.63;100.00
4836;BME280;66719;51.226;6.902;2023-08-21T11:05:18;101477.38;;;23.65;100.00
4836;BME280;66719;51.226;6.902;2023-08-21T11:07:47;101478.22;;;23.66;100.00
4836;BME280;66719;51.226;6.902;2023-08-21T11:10:16;101474.53;;;23.53;100.00
4836;BME280;66719;51.226;6.902;2023-08-21T11:12:54;101475.06;;;23.59;100.00
4836;BME280;66719;51.226;6.902;2023-08-21T11:15:28;101471.41;;;23.60;100.00
4836;BME280;66719;51.226;6.902;2023-08-21T11:18:02;101467.44;;;23.67;100.00
4836;BME280;66719;51.226;6.902;2023-08-21T11:20:30;101477.84;;;23.72;100.00
4836;BME280;66719;51.226;6.902;2023-08-21T11:23:02;101479.75;;;23.70;100.00
4836;BME280;66719;51.226;6.902;2023-08-21T11:25:31;101490.44;;;23.70;100.00
4836;BME280;66719;51.226;6.902;2023-08-21T11:28:01;101482.81;;;23.64;100.00
4836;BME280;66719;51.226;6.902;2023-08-21T11:30:30;101490.53;;;23.68;100.00
4836;BME280;66719;51.226;6.902;2023-08-21T11:33:05;101485.38;;;23.65;100.00
4836;BME280;66719;51.226;6.902;2023-08-21T11:35:32;101488.69;;;23.55;100.00
4836;BME280;66719;51.226;6.902;2023-08-21T11:37:59;101484.56;;;23.49;100.00
4836;BME280;66719;51.226;6.902;2023-08-21T11:40:25;101479.34;;;23.62;100.00
4836;BME280;66719;51.226;6.902;2023-08-21T11:42:52;101487.69;;;23.86;100.00
4836;BME280;66719;51.226;6.902;2023-08-21T11:45:22;101491.25;;;24.01;100.00
4836;BME280;66719;51.226;6.902;2023-08-21T11:47:48;101492.94;;;23.87;100.00
4836;BME280;66719;51.226;6.902;2023-08-21T11:50:15;101489.41;;;23.87;100.00
4836;BME280;66719;51.226;6.902;2023-08-21T11:52:44;101489.50;;;23.85;100.00
4836;BME280;66719;51.226;6.902;2023-08-21T11:55:11;101485.88;;;23.72;100.00
4836;BME280;66719;51.226;6.902;2023-08-21T11:57:51;101479.28;;;23.78;100.00
4836;BME280;66719;51.226;6.902;2023-08-21T12:00:18;101485.00;;;23.86;100.00
4836;BME280;66719;51.226;6.902;2023-08-21T12:02:59;101483.28;;;23.85;100.00
4836;BME280;66719;51.226;6.902;2023-08-21T12:05:27;101491.31;;;23.85;100.00
4836;BME280;66719;51.226;6.902;2023-08-21T12:07:55;101477.09;;;23.84;100.00
4836;BME280;66719;51.226;6.902;2023-08-21T12:10:30;101473.91;;;23.78;100.00
4836;BME280;66719;51.226;6.902;2023-08-21T12:12:57;101474.22;;;24.02;100.00
4836;BME280;66719;51.226;6.902;2023-08-21T12:15:24;101483.66;;;24.21;100.00
4836;BME280;66719;51.226;6.902;2023-08-21T12:17:50;101481.34;;;24.30;100.00
4836;BME280;66719;51.226;6.902;2023-08-21T12:20:17;101473.88;;;24.49;100.00
4836;BME280;66719;51.226;6.902;2023-08-21T12:22:44;101486.38;;;24.77;100.00
4836;BME280;66719;51.226;6.902;2023-08-21T12:25:10;101477.22;;;24.94;100.00
4836;BME280;66719;51.226;6.902;2023-08-21T12:27:37;101476.78;;;25.27;100.00
4836;BME280;66719;51.226;6.902;2023-08-21T12:30:05;101469.84;;;25.50;100.00
4836;BME280;66719;51.226;6.902;2023-08-21T12:32:32;101472.50;;;25.62;99.88
4836;BME280;66719;51.226;6.902;2023-08-21T12:34:59;101476.75;;;25.79;98.40
4836;BME280;66719;51.226;6.902;2023-08-21T12:37:26;101478.44;;;26.06;100.00
4836;BME280;66719;51.226;6.902;2023-08-21T12:39:53;101477.09;;;26.37;100.00
4836;BME280;66719;51.226;6.902;2023-08-21T12:42:19;101470.81;;;26.62;98.84
4836;BME280;66719;51.226;6.902;2023-08-21T12:44:46;101470.41;;;26.79;91.50
4836;BME280;66719;51.226;6.902;2023-08-21T12:47:13;101469.69;;;26.77;89.08
4836;BME280;66719;51.226;6.902;2023-08-21T12:49:39;101470.91;;;26.84;88.81
4836;BME280;66719;51.226;6.902;2023-08-21T12:52:06;101477.69;;;27.14;92.37
4836;BME280;66719;51.226;6.902;2023-08-21T12:54:36;101467.50;;;27.52;96.04
4836;BME280;66719;51.226;6.902;2023-08-21T12:57:03;101467.84;;;27.72;95.99